createdAt,value
2018-09-12T00:00:44.628Z,72.85
2018-09-12T00:03:13.956Z,72.87
2018-09-12T00:05:42.767Z,73.04
2018-09-12T00:08:11.555Z,72.65
2018-09-12T00:10:40.431Z,72.05
2018-09-12T00:13:09.199Z,71.87
2018-09-12T00:15:39.304Z,72.29
2018-09-12T00:18:09.091Z,72.48
2018-09-12T00:20:38.852Z,71.66
2018-09-12T00:23:08.590Z,71.78
2018-09-12T00:25:38.364Z,72.37
2018-09-12T00:28:07.371Z,71.94
2018-09-12T00:30:37.793Z,72.33
2018-09-12T00:33:07.514Z,71.96
2018-09-12T00:35:37.127Z,72.05
2018-09-12T00:38:06.232Z,72.10
2018-09-12T00:40:35.271Z,72.56
2018-09-12T00:43:04.089Z,71.63
2018-09-12T00:45:33.352Z,72.05
2018-09-12T00:48:02.542Z,71.99
2018-09-12T00:50:31.306Z,71.89
2018-09-12T00:53:00.144Z,71.11
2018-09-12T00:55:29.575Z,71.90
2018-09-12T00:57:59.203Z,71.39
2018-09-12T01:00:27.939Z,71.42
2018-09-12T01:02:57.332Z,70.95
2018-09-12T01:05:26.074Z,70.80
2018-09-12T01:07:54.828Z,71.64
2018-09-12T01:10:24.621Z,71.11
2018-09-12T01:12:53.371Z,70.99
2018-09-12T01:15:22.238Z,70.42
2018-09-12T01:17:51.586Z,70.70
2018-09-12T01:20:20.374Z,70.47
2018-09-12T01:22:49.944Z,70.21
2018-09-12T01:25:18.674Z,70.69
2018-09-12T01:27:51.552Z,70.42
2018-09-12T01:30:23.096Z,70.21
2018-09-12T01:32:53.877Z,70.61
2018-09-12T01:35:23.398Z,70.63
2018-09-12T01:37:52.163Z,70.50
2018-09-12T01:40:20.879Z,69.87
2018-09-12T01:42:50.359Z,69.66
2018-09-12T01:45:20.139Z,70.44
2018-09-12T01:47:49.820Z,69.44
2018-09-12T01:50:18.603Z,69.52
2018-09-12T01:52:48.023Z,70.59
2018-09-12T01:55:16.845Z,70.08
2018-09-12T01:57:46.304Z,69.93
2018-09-12T02:00:17.470Z,70.06
2018-09-12T02:02:47.524Z,69.99
2018-09-12T02:05:16.392Z,69.95
2018-09-12T02:07:45.276Z,69.77
2018-09-12T02:10:14.050Z,69.73
2018-09-12T02:12:42.885Z,69.99
2018-09-12T02:15:11.774Z,69.46
2018-09-12T02:17:41.252Z,69.79
2018-09-12T02:20:10.011Z,69.92
2018-09-12T02:22:39.271Z,70.24
2018-09-12T02:25:08.187Z,70.03
2018-09-12T02:27:37.038Z,69.75
2018-09-12T02:30:06.686Z,69.56
2018-09-12T02:32:36.851Z,69.31
2018-09-12T02:35:06.688Z,69.21
2018-09-12T02:37:35.788Z,69.65
2018-09-12T02:43:03.752Z,68.66
2018-09-12T02:45:32.671Z,69.10
2018-09-12T02:48:01.998Z,69.46
2018-09-12T02:50:30.840Z,69.01
2018-09-12T02:52:59.682Z,69.29
2018-09-12T02:55:28.814Z,69.64
2018-09-12T02:57:58.301Z,68.76
2018-09-12T03:00:27.674Z,69.71
2018-09-12T03:02:56.928Z,69.10
2018-09-12T03:05:25.731Z,69.07
2018-09-12T03:07:54.411Z,69.18
2018-09-12T03:10:23.223Z,69.21
2018-09-12T03:12:51.955Z,69.59
2018-09-12T03:15:20.857Z,69.21
2018-09-12T03:17:50.182Z,69.24
2018-09-12T03:20:18.921Z,69.29
2018-09-12T03:22:48.143Z,68.74
2018-09-12T03:25:16.886Z,68.73
2018-09-12T03:27:45.764Z,68.43
2018-09-12T03:30:15.116Z,68.51
2018-09-12T03:32:44.472Z,68.95
2018-09-12T03:35:14.008Z,68.56
2018-09-12T03:37:42.813Z,68.37
2018-09-12T03:40:11.604Z,68.66
2018-09-12T03:42:41.137Z,69.43
2018-09-12T03:45:09.959Z,69.16
2018-09-12T03:47:39.347Z,70.02
2018-09-12T03:50:08.192Z,70.49
2018-09-12T03:52:38.188Z,69.67
2018-09-12T03:55:07.259Z,70.77
2018-09-12T03:57:36.814Z,70.59
2018-09-12T04:00:07.339Z,70.15
2018-09-12T04:02:36.946Z,70.85
2018-09-12T04:05:06.462Z,70.98
2018-09-12T04:07:36.217Z,71.04
2018-09-12T04:10:05.182Z,70.81
2018-09-12T04:12:33.949Z,70.47
2018-09-12T04:15:02.733Z,70.33
2018-09-12T04:17:34.555Z,70.97
2018-09-12T04:20:03.575Z,70.58
2018-09-12T04:22:33.518Z,70.79
2018-09-12T04:25:02.388Z,71.37
2018-09-12T04:27:31.849Z,71.32
2018-09-12T04:30:00.591Z,71.11
2018-09-12T04:32:30.013Z,71.19
2018-09-12T04:34:59.613Z,71.10
2018-09-12T04:37:28.529Z,71.45
2018-09-12T04:39:57.283Z,71.25
2018-09-12T04:42:26.410Z,71.24
2018-09-12T04:44:55.157Z,71.34
2018-09-12T04:47:24.571Z,71.68
2018-09-12T04:49:53.332Z,72.01
2018-09-12T04:52:22.116Z,71.92
2018-09-12T04:54:50.894Z,71.37
2018-09-12T04:57:20.449Z,71.81
2018-09-12T04:59:50.157Z,71.69
2018-09-12T05:02:19.579Z,71.35
2018-09-12T05:04:48.340Z,71.05
2018-09-12T05:07:17.120Z,71.37
2018-09-12T05:09:46.027Z,70.84
2018-09-12T05:12:14.910Z,70.91
2018-09-12T05:14:43.763Z,70.34
2018-09-12T05:17:12.593Z,70.33
2018-09-12T05:19:41.420Z,69.92
2018-09-12T05:22:10.444Z,69.29
2018-09-12T05:24:40.327Z,69.32
2018-09-12T05:27:09.077Z,69.13
2018-09-12T05:29:38.630Z,68.48
2018-09-12T05:32:08.024Z,67.59
2018-09-12T05:34:38.104Z,68.07
2018-09-12T05:37:07.606Z,68.37
2018-09-12T05:39:36.606Z,68.57
2018-09-12T05:42:05.800Z,68.29
2018-09-12T05:44:34.737Z,68.14
2018-09-12T05:47:03.992Z,68.75
2018-09-12T05:49:32.702Z,68.85
2018-09-12T05:52:01.443Z,69.34
2018-09-12T05:54:30.312Z,69.56
2018-09-12T05:56:59.737Z,69.57
2018-09-12T05:59:29.175Z,69.86
2018-09-12T06:01:58.511Z,69.23
2018-09-12T06:04:27.401Z,69.92
2018-09-12T06:06:56.795Z,69.40
2018-09-12T06:09:26.180Z,69.64
2018-09-12T06:11:54.961Z,69.50
2018-09-12T06:14:24.327Z,69.00
2018-09-12T06:16:53.779Z,68.72
2018-09-12T06:19:22.555Z,68.55
2018-09-12T06:21:52.199Z,68.15
2018-09-12T06:24:21.701Z,67.90
2018-09-12T06:26:50.516Z,67.52
2018-09-12T06:29:19.682Z,67.14
2018-09-12T06:31:48.480Z,66.99
2018-09-12T06:34:17.835Z,67.57
2018-09-12T06:36:46.796Z,66.70
2018-09-12T06:39:15.615Z,67.00
2018-09-12T06:41:44.421Z,67.72
2018-09-12T06:44:13.645Z,67.26
2018-09-12T06:46:43.138Z,67.31
2018-09-12T06:49:11.904Z,67.67
2018-09-12T06:51:40.685Z,66.70
2018-09-12T06:54:09.621Z,66.86
2018-09-12T06:56:39.560Z,66.98
2018-09-12T06:59:09.238Z,66.56
2018-09-12T07:01:38.467Z,66.04
2018-09-12T07:04:07.641Z,66.91
2018-09-12T07:06:36.607Z,66.08
2018-09-12T07:09:08.447Z,66.54
2018-09-12T07:11:37.578Z,65.50
2018-09-12T07:14:06.872Z,65.33
2018-09-12T07:16:36.902Z,64.84
2018-09-12T07:19:07.545Z,64.46
2018-09-12T07:21:36.601Z,64.01
2018-09-12T07:24:06.203Z,64.14
2018-09-12T07:26:35.299Z,64.60
2018-09-12T07:29:04.047Z,63.58
2018-09-12T07:31:32.871Z,64.79
2018-09-12T07:34:02.166Z,64.83
2018-09-12T07:36:31.064Z,64.31
2018-09-12T07:39:00.685Z,63.77
2018-09-12T07:41:29.941Z,63.58
2018-09-12T07:43:58.804Z,64.04
2018-09-12T07:46:27.694Z,62.68
2018-09-12T07:48:56.540Z,63.41
2018-09-12T07:51:25.939Z,63.04
2018-09-12T07:53:54.759Z,63.10
2018-09-12T07:56:24.293Z,63.15
2018-09-12T07:58:53.867Z,61.91
2018-09-12T08:01:23.123Z,62.26
2018-09-12T08:03:51.897Z,62.26
2018-09-12T08:06:20.839Z,61.87
2018-09-12T08:08:49.657Z,61.48
2018-09-12T08:11:18.518Z,62.67
2018-09-12T08:13:47.438Z,61.64
2018-09-12T08:16:16.280Z,62.07
2018-09-12T08:18:45.913Z,61.29
2018-09-12T08:21:14.750Z,61.83
2018-09-12T08:23:44.182Z,61.26
2018-09-12T08:26:12.924Z,61.60
2018-09-12T08:28:41.694Z,61.47
2018-09-12T08:31:10.551Z,60.33
2018-09-12T08:33:39.971Z,59.83
2018-09-12T08:36:08.749Z,60.16
2018-09-12T08:38:37.700Z,60.56
2018-09-12T08:41:06.704Z,60.41
2018-09-12T08:43:36.509Z,60.04
2018-09-12T08:46:05.565Z,60.08
2018-09-12T08:48:34.396Z,60.60
2018-09-12T08:51:03.165Z,60.35
2018-09-12T08:53:32.042Z,59.71
2018-09-12T08:56:01.664Z,59.55
2018-09-12T08:58:31.645Z,59.58
2018-09-12T09:01:01.322Z,60.25
2018-09-12T09:03:30.272Z,59.84
2018-09-12T09:05:59.113Z,59.19
2018-09-12T09:08:28.097Z,59.86
2018-09-12T09:10:56.868Z,59.00
2018-09-12T09:13:25.765Z,59.31
2018-09-12T09:15:55.621Z,60.36
2018-09-12T09:18:24.359Z,59.96
2018-09-12T09:20:53.097Z,60.73
2018-09-12T09:23:22.625Z,60.82
2018-09-12T09:25:51.385Z,60.99
2018-09-12T09:28:20.128Z,61.13
2018-09-12T09:30:48.879Z,60.88
2018-09-12T09:33:18.515Z,60.84
2018-09-12T09:35:47.513Z,61.35
2018-09-12T09:38:16.658Z,60.78
2018-09-12T09:40:45.422Z,58.98
2018-09-12T09:43:14.925Z,59.07
2018-09-12T09:45:43.649Z,57.17
2018-09-12T09:48:12.467Z,57.74
2018-09-12T09:50:41.250Z,57.63
2018-09-12T09:53:10.032Z,57.43
2018-09-12T09:55:39.658Z,55.77
2018-09-12T09:58:08.999Z,56.59
2018-09-12T10:00:45.372Z,54.16
2018-09-12T10:03:19.841Z,53.89
2018-09-12T10:05:53.746Z,53.43
2018-09-12T10:08:30.960Z,55.65
2018-09-12T10:11:00.247Z,54.72
2018-09-12T10:13:30.057Z,54.24
2018-09-12T10:15:58.899Z,54.02
2018-09-12T10:18:27.627Z,53.73
2018-09-12T10:20:56.355Z,53.44
2018-09-12T10:23:26.207Z,51.42
2018-09-12T10:25:54.982Z,50.88
2018-09-12T10:28:23.724Z,51.30
2018-09-12T10:30:52.515Z,49.46
2018-09-12T10:33:21.827Z,49.50
2018-09-12T10:35:50.623Z,48.89
2018-09-12T10:38:19.352Z,50.00
2018-09-12T10:40:48.610Z,49.71
2018-09-12T10:43:18.045Z,49.38
2018-09-12T10:45:46.843Z,49.86
2018-09-12T10:48:15.655Z,49.27
2018-09-12T10:50:44.421Z,50.32
2018-09-12T10:53:13.160Z,51.07
2018-09-12T10:55:42.358Z,52.33
2018-09-12T10:58:11.713Z,53.10
2018-09-12T11:00:41.115Z,52.12
2018-09-12T11:03:10.374Z,53.12
2018-09-12T11:05:39.084Z,53.08
2018-09-12T11:08:08.488Z,52.18
2018-09-12T11:10:38.791Z,52.42
2018-09-12T11:13:08.204Z,52.21
2018-09-12T11:15:37.918Z,52.99
2018-09-12T11:18:07.744Z,53.19
2018-09-12T11:20:36.694Z,53.16
2018-09-12T11:23:06.315Z,54.06
2018-09-12T11:25:35.066Z,54.41
2018-09-12T11:28:03.827Z,54.52
2018-09-12T11:30:32.592Z,54.54
2018-09-12T11:33:02.148Z,55.12
2018-09-12T11:35:31.395Z,53.68
2018-09-12T11:38:00.144Z,54.54
2018-09-12T11:40:28.856Z,53.64
2018-09-12T11:42:58.231Z,53.64
2018-09-12T11:45:26.968Z,54.14
2018-09-12T11:47:55.713Z,54.00
2018-09-12T11:50:24.681Z,54.58
2018-09-12T11:52:53.409Z,54.64
2018-09-12T11:55:22.436Z,53.92
2018-09-12T11:57:52.134Z,54.65
2018-09-12T12:00:22.019Z,54.92
2018-09-12T12:02:51.493Z,54.78
2018-09-12T12:05:20.316Z,54.18
2018-09-12T12:10:24.984Z,55.23
2018-09-12T12:12:53.788Z,54.98
2018-09-12T12:15:22.603Z,55.56
2018-09-12T12:17:51.535Z,53.96
2018-09-12T12:20:20.332Z,55.22
2018-09-12T12:22:49.779Z,55.19
2018-09-12T12:25:18.575Z,54.11
2018-09-12T12:27:47.330Z,53.89
2018-09-12T12:30:16.107Z,53.63
2018-09-12T12:32:45.890Z,53.80
2018-09-12T12:35:15.335Z,53.58
2018-09-12T12:37:44.416Z,53.51
2018-09-12T12:40:13.256Z,53.76
2018-09-12T12:42:42.822Z,53.36
2018-09-12T12:45:11.609Z,53.88
2018-09-12T12:47:40.384Z,52.29
2018-09-12T12:50:09.185Z,51.17
2018-09-12T12:52:38.067Z,51.97
2018-09-12T12:55:07.052Z,51.53
2018-09-12T12:57:36.893Z,51.52
2018-09-12T13:00:06.620Z,52.21
2018-09-12T13:02:37.231Z,51.54
2018-09-12T13:05:07.522Z,51.14
2018-09-12T13:07:36.766Z,50.90
2018-09-12T13:10:06.153Z,50.61
2018-09-12T13:12:35.623Z,51.10
2018-09-12T13:15:04.573Z,51.63
2018-09-12T13:17:33.476Z,53.24
2018-09-12T13:20:02.237Z,54.35
2018-09-12T13:22:31.932Z,54.05
2018-09-12T13:25:01.340Z,54.63
2018-09-12T13:27:30.137Z,53.71
2018-09-12T13:29:59.735Z,53.80
2018-09-12T13:32:29.785Z,52.91
2018-09-12T13:34:59.207Z,52.17
2018-09-12T13:37:28.132Z,49.71
2018-09-12T13:39:56.867Z,47.65
2018-09-12T13:42:26.139Z,48.18
2018-09-12T13:44:54.891Z,48.19
2018-09-12T13:47:23.675Z,47.46
2018-09-12T13:49:52.434Z,47.70
2018-09-12T13:52:21.194Z,47.70
2018-09-12T13:54:50.090Z,47.58
2018-09-12T13:57:20.367Z,46.27
2018-09-12T13:59:49.940Z,47.25
2018-09-12T14:02:19.388Z,47.96
2018-09-12T14:04:48.131Z,49.24
2018-09-12T14:07:16.860Z,47.65
2018-09-12T14:09:46.226Z,46.60
2018-09-12T14:12:14.971Z,47.45
2018-09-12T14:14:43.780Z,48.22
2018-09-12T14:17:12.535Z,48.15
2018-09-12T14:19:41.386Z,48.24
2018-09-12T14:22:11.067Z,48.36
2018-09-12T14:24:39.929Z,47.42
2018-09-12T14:27:08.678Z,49.14
2018-09-12T14:29:37.531Z,49.19
2018-09-12T14:32:06.552Z,49.78
2018-09-12T14:34:36.359Z,49.83
2018-09-12T14:37:05.396Z,50.30
2018-09-12T14:39:34.304Z,49.98
2018-09-12T14:42:03.798Z,49.56
2018-09-12T14:44:32.578Z,49.61
2018-09-12T14:47:01.336Z,48.79
2018-09-12T14:49:30.484Z,49.09
2018-09-12T14:51:59.301Z,49.54
2018-09-12T14:54:28.385Z,49.63
2018-09-12T14:56:57.904Z,50.98
2018-09-12T14:59:27.307Z,49.74
2018-09-12T15:01:57.487Z,50.32
2018-09-12T15:04:26.543Z,51.24
2018-09-12T15:06:55.295Z,50.66
2018-09-12T15:09:24.675Z,51.15
2018-09-12T15:11:53.415Z,52.45
2018-09-12T15:14:22.174Z,52.03
2018-09-12T15:16:50.963Z,51.99
2018-09-12T15:19:19.709Z,49.43
2018-09-12T15:21:48.700Z,49.26
2018-09-12T15:24:18.043Z,48.08
2018-09-12T15:26:46.936Z,47.24
2018-09-12T15:29:15.743Z,46.42
2018-09-12T15:31:44.536Z,46.84
2018-09-12T15:34:13.723Z,47.38
2018-09-12T15:36:42.515Z,48.44
2018-09-12T15:39:12.380Z,50.38
2018-09-12T15:41:42.468Z,51.90
2018-09-12T15:44:11.757Z,52.39
2018-09-12T15:46:40.545Z,52.19
2018-09-12T15:49:09.404Z,51.98
2018-09-12T15:51:39.489Z,52.74
2018-09-12T15:54:08.252Z,52.33
2018-09-12T15:56:37.992Z,53.21
2018-09-12T15:59:07.797Z,53.66
2018-09-12T16:01:37.257Z,53.81
2018-09-12T16:04:06.180Z,53.46
2018-09-12T16:06:37.761Z,53.04
2018-09-12T16:09:11.847Z,52.86
2018-09-12T16:11:40.851Z,52.54
2018-09-12T16:14:09.745Z,51.91
2018-09-12T16:16:39.452Z,51.63
2018-09-12T16:19:08.394Z,51.87
2018-09-12T16:21:37.576Z,51.22
2018-09-12T16:24:07.606Z,51.28
2018-09-12T16:26:39.062Z,52.21
2018-09-12T16:29:13.852Z,52.12
2018-09-12T16:31:46.606Z,51.72
2018-09-12T16:34:16.505Z,52.15
2018-09-12T16:36:45.853Z,52.99
2018-09-12T16:39:14.622Z,53.62
2018-09-12T16:41:44.336Z,54.89
2018-09-12T16:44:13.584Z,54.61
2018-09-12T16:46:42.651Z,54.57
2018-09-12T16:49:11.440Z,55.63
2018-09-12T16:51:41.310Z,55.42
2018-09-12T16:54:10.114Z,56.34
2018-09-12T16:56:40.073Z,56.49
2018-09-12T16:59:09.701Z,56.62
2018-09-12T17:01:39.255Z,57.03
2018-09-12T17:04:08.055Z,57.81
2018-09-12T17:06:36.950Z,58.11
2018-09-12T17:09:09.296Z,57.93
2018-09-12T17:11:39.166Z,58.06
2018-09-12T17:14:08.209Z,58.96
2018-09-12T17:16:38.275Z,58.64
2018-09-12T17:19:07.986Z,59.41
2018-09-12T17:21:37.511Z,59.46
2018-09-12T17:24:07.451Z,59.11
2018-09-12T17:26:36.559Z,59.16
2018-09-12T17:29:05.807Z,59.53
2018-09-12T17:31:34.716Z,59.72
2018-09-12T17:34:05.529Z,59.73
2018-09-12T17:36:34.329Z,60.23
2018-09-12T17:39:03.428Z,59.76
2018-09-12T17:41:33.060Z,60.41
2018-09-12T17:44:02.657Z,60.08
2018-09-12T17:46:32.320Z,60.63
2018-09-12T17:49:01.951Z,60.32
2018-09-12T17:51:31.420Z,60.71
2018-09-12T17:54:00.723Z,61.12
2018-09-12T17:56:31.134Z,60.99
2018-09-12T17:59:00.838Z,60.80
2018-09-12T18:01:31.372Z,61.08
2018-09-12T18:04:00.279Z,61.36
2018-09-12T18:06:29.628Z,61.71
2018-09-12T18:08:59.092Z,61.68
2018-09-12T18:11:27.925Z,61.83
2018-09-12T18:13:56.693Z,62.45
2018-09-12T18:16:25.537Z,62.54
2018-09-12T18:18:54.575Z,62.37
2018-09-12T18:21:23.562Z,62.59
2018-09-12T18:23:53.184Z,62.45
2018-09-12T18:26:21.916Z,63.14
2018-09-12T18:28:50.677Z,63.28
2018-09-12T18:31:19.432Z,63.62
2018-09-12T18:33:48.683Z,63.34
2018-09-12T18:36:17.441Z,63.56
2018-09-12T18:38:46.204Z,63.93
2018-09-12T18:41:15.631Z,64.23
2018-09-12T18:43:59.068Z,64.04
2018-09-12T18:46:28.669Z,64.57
2018-09-12T18:49:00.017Z,64.66
2018-09-12T18:51:29.453Z,64.53
2018-09-12T18:53:59.168Z,65.38
2018-09-12T18:56:28.624Z,65.04
2018-09-12T18:58:58.246Z,65.89
2018-09-12T19:01:27.516Z,65.37
2018-09-12T19:03:56.561Z,65.72
2018-09-12T19:06:25.320Z,65.77
2018-09-12T19:08:54.811Z,65.92
2018-09-12T19:11:23.562Z,66.00
2018-09-12T19:13:52.415Z,65.76
2018-09-12T19:16:21.175Z,65.83
2018-09-12T19:18:49.939Z,66.26
2018-09-12T19:21:18.879Z,66.54
2018-09-12T19:23:48.422Z,66.74
2018-09-12T19:26:17.217Z,66.56
2018-09-12T19:28:45.910Z,67.58
2018-09-12T19:31:14.680Z,67.40
2018-09-12T19:33:44.220Z,67.06
2018-09-12T19:36:13.004Z,67.32
2018-09-12T19:38:41.723Z,67.63
2018-09-12T19:41:10.878Z,68.03
2018-09-12T19:43:40.539Z,68.69
2018-09-12T19:46:09.287Z,68.94
2018-09-12T19:48:39.598Z,69.00
2018-09-12T19:51:16.836Z,69.58
2018-09-12T19:53:46.585Z,69.70
2018-09-12T19:56:16.565Z,69.32
2018-09-12T19:58:46.323Z,69.54
2018-09-12T20:01:15.900Z,70.28
2018-09-12T20:03:44.662Z,69.89
2018-09-12T20:06:13.411Z,69.96
2018-09-12T20:08:42.829Z,70.62
2018-09-12T20:11:11.543Z,69.84
2018-09-12T20:13:40.303Z,70.45
2018-09-12T20:16:09.241Z,70.24
2018-09-12T20:18:38.032Z,70.58
2018-09-12T20:21:07.994Z,70.53
2018-09-12T20:23:38.081Z,70.49
2018-09-12T20:26:06.936Z,70.93
2018-09-12T20:28:41.992Z,71.81
2018-09-12T20:31:11.231Z,71.88
2018-09-12T20:33:40.451Z,72.02
2018-09-12T20:36:09.182Z,71.48
2018-09-12T20:38:38.796Z,71.83
2018-09-12T20:41:07.971Z,71.85
2018-09-12T20:43:37.624Z,71.52
2018-09-12T20:46:07.139Z,71.63
2018-09-12T20:48:37.322Z,72.34
2018-09-12T20:51:06.401Z,72.22
2018-09-12T20:53:35.791Z,72.60
2018-09-12T20:56:05.472Z,72.34
2018-09-12T20:58:35.643Z,72.40
2018-09-12T21:01:05.276Z,73.14
2018-09-12T21:03:34.023Z,73.09
2018-09-12T21:06:02.783Z,72.78
2018-09-12T21:08:32.344Z,73.34
2018-09-12T21:11:01.116Z,73.19
2018-09-12T21:13:29.949Z,72.93
2018-09-12T21:15:58.732Z,72.95
2018-09-12T21:18:27.678Z,73.41
2018-09-12T21:20:56.673Z,73.83
2018-09-12T21:23:26.646Z,73.62
2018-09-12T21:25:55.407Z,73.38
2018-09-12T21:28:24.468Z,73.80
2018-09-12T21:30:53.286Z,73.94
2018-09-12T21:33:24.281Z,74.61
2018-09-12T21:35:53.141Z,74.65
2018-09-12T21:38:22.033Z,74.51
2018-09-12T21:40:50.922Z,74.46
2018-09-12T21:43:20.357Z,74.06
2018-09-12T21:45:49.163Z,74.70
2018-09-12T21:48:18.925Z,74.51
2018-09-12T21:50:47.796Z,74.96
2018-09-12T21:53:17.264Z,74.55
2018-09-12T21:55:46.883Z,75.17
2018-09-12T21:58:16.334Z,75.63
2018-09-12T22:00:45.936Z,75.50
2018-09-12T22:03:15.297Z,75.88
2018-09-12T22:05:44.335Z,75.39
2018-09-12T22:08:13.582Z,76.09
2018-09-12T22:10:42.503Z,75.98
2018-09-12T22:13:11.240Z,75.67
2018-09-12T22:15:40.123Z,75.92
2018-09-12T22:18:08.876Z,76.21
2018-09-12T22:20:38.601Z,76.57
2018-09-12T22:23:08.148Z,76.54
2018-09-12T22:25:37.312Z,76.54
2018-09-12T22:28:06.792Z,76.29
2018-09-12T22:30:35.787Z,76.22
2018-09-12T22:33:05.900Z,76.18
2018-09-12T22:35:35.075Z,76.67
2018-09-12T22:38:03.808Z,76.00
2018-09-12T22:40:32.571Z,76.23
2018-09-12T22:43:02.047Z,76.33
2018-09-12T22:45:30.979Z,76.97
2018-09-12T22:48:00.488Z,76.71
2018-09-12T22:50:30.095Z,76.86
2018-09-12T22:52:59.811Z,76.55
2018-09-12T22:55:28.621Z,76.95
2018-09-12T22:57:57.907Z,77.20
2018-09-12T23:00:27.422Z,77.15
2018-09-12T23:02:56.895Z,76.80
2018-09-12T23:05:25.660Z,77.15
2018-09-12T23:07:55.080Z,76.99
2018-09-12T23:10:23.819Z,77.57
2018-09-12T23:12:53.243Z,76.81
2018-09-12T23:15:21.976Z,76.90
2018-09-12T23:17:50.735Z,77.09
2018-09-12T23:20:19.504Z,77.51
2018-09-12T23:22:48.741Z,77.33
2018-09-12T23:25:17.595Z,77.43
2018-09-12T23:27:46.427Z,77.34
2018-09-12T23:30:15.210Z,77.27
2018-09-12T23:32:44.828Z,76.91
2018-09-12T23:35:13.648Z,77.78
2018-09-12T23:37:42.526Z,77.30
2018-09-12T23:40:11.955Z,77.79
2018-09-12T23:42:41.494Z,77.96
2018-09-12T23:45:10.677Z,77.54
2018-09-12T23:47:39.867Z,77.85
2018-09-12T23:50:08.672Z,77.85
2018-09-12T23:52:38.819Z,77.66
2018-09-12T23:55:07.812Z,77.85
2018-09-12T23:57:37.414Z,77.47
